createdAt,value
2023-02-22T00:02:13.929Z,100210.41
2023-02-22T00:04:42.333Z,100216.56
2023-02-22T00:07:10.163Z,100211.41
2023-02-22T00:09:38.041Z,100210.63
2023-02-22T00:12:05.988Z,100202.06
2023-02-22T00:14:33.871Z,100219.31
2023-02-22T00:17:02.509Z,100220.22
2023-02-22T00:19:31.133Z,100216.81
2023-02-22T00:21:59.195Z,100228.03
2023-02-22T00:24:29.473Z,100228.94
2023-02-22T00:26:57.273Z,100237.53
2023-02-22T00:29:25.989Z,100235.81
2023-02-22T00:31:54.252Z,100239.28
2023-02-22T00:34:24.239Z,100245.34
2023-02-22T00:36:52.057Z,100241.06
2023-02-22T00:39:20.281Z,100243.66
2023-02-22T00:41:48.129Z,100239.34
2023-02-22T00:44:16.148Z,100251.38
2023-02-22T00:46:43.790Z,100241.94
2023-02-22T00:49:11.800Z,100254.84
2023-02-22T00:51:39.448Z,100252.25
2023-02-22T00:54:08.491Z,100254.81
2023-02-22T00:56:37.513Z,100256.56
2023-02-22T00:59:06.149Z,100264.25
2023-02-22T01:01:33.884Z,100264.25
2023-02-22T01:04:02.080Z,100266.84
2023-02-22T01:06:30.034Z,100263.41
2023-02-22T01:08:59.574Z,100268.53
2023-02-22T01:11:27.418Z,100271.97
2023-02-22T01:13:56.662Z,100271.13
2023-02-22T01:16:24.339Z,100273.69
2023-02-22T01:18:52.386Z,100273.72
2023-02-22T01:21:20.639Z,100282.34
2023-02-22T01:23:48.620Z,100289.25
2023-02-22T01:26:16.399Z,100287.50
2023-02-22T01:28:44.366Z,100292.69
2023-02-22T01:31:12.680Z,100297.84
2023-02-22T01:33:41.550Z,100301.28
2023-02-22T01:36:11.593Z,100301.28
2023-02-22T01:38:39.881Z,100298.72
2023-02-22T01:41:07.761Z,100301.28
2023-02-22T01:43:38.398Z,100303.00
2023-02-22T01:46:21.261Z,100299.56
2023-02-22T01:49:06.491Z,100299.56
2023-02-22T01:51:38.921Z,100302.13
2023-02-22T01:54:22.273Z,100303.00
2023-02-22T01:57:22.092Z,100308.16
2023-02-22T02:00:00.855Z,100313.31
2023-02-22T02:02:29.415Z,100306.41
2023-02-22T02:04:59.490Z,100304.69
2023-02-22T02:07:29.664Z,100318.47
2023-02-22T02:10:06.880Z,100311.59
2023-02-22T02:12:36.242Z,100319.31
2023-02-22T02:15:31.525Z,100321.91
2023-02-22T02:18:07.755Z,100318.47
2023-02-22T02:20:53.759Z,100321.94
2023-02-22T02:23:36.223Z,100331.38
2023-02-22T02:26:10.298Z,100330.53
2023-02-22T02:28:56.511Z,100327.09
2023-02-22T02:31:54.855Z,100339.16
2023-02-22T02:34:49.675Z,100342.56
2023-02-22T02:37:44.897Z,100340.84
2023-02-22T02:40:12.702Z,100345.16
2023-02-22T02:43:00.820Z,100340.84
2023-02-22T02:45:47.055Z,100340.00
2023-02-22T02:48:21.205Z,100349.44
2023-02-22T02:50:51.238Z,100346.00
2023-02-22T02:53:25.558Z,100359.75
2023-02-22T02:55:53.304Z,100347.72
2023-02-22T02:58:23.858Z,100346.00
2023-02-22T03:00:56.318Z,100361.50
2023-02-22T03:03:38.825Z,100362.34
2023-02-22T03:06:25.032Z,100358.06
2023-02-22T03:09:14.263Z,100362.38
2023-02-22T03:12:12.999Z,100359.78
2023-02-22T03:15:06.313Z,100374.44
2023-02-22T03:17:55.965Z,100374.44
2023-02-22T03:20:37.865Z,100372.72
2023-02-22T03:23:31.162Z,100371.81
2023-02-22T03:26:07.876Z,100377.84
2023-02-22T03:28:41.766Z,100383.03
2023-02-22T03:31:18.042Z,100386.47
2023-02-22T03:34:10.014Z,100390.75
2023-02-22T03:36:51.940Z,100394.19
2023-02-22T03:39:20.903Z,100387.28
2023-02-22T03:41:53.218Z,100399.34
2023-02-22T03:44:29.295Z,100392.47
2023-02-22T03:47:02.117Z,100398.50
2023-02-22T03:49:35.096Z,100393.31
2023-02-22T03:52:04.504Z,100401.06
2023-02-22T03:54:35.156Z,100401.94
2023-02-22T03:57:25.562Z,100408.81
2023-02-22T04:00:06.990Z,100413.13
2023-02-22T04:02:41.793Z,100416.56
2023-02-22T04:08:33.535Z,100413.13
2023-02-22T04:11:07.754Z,100421.75
2023-02-22T04:13:35.473Z,100416.59
2023-02-22T04:16:04.379Z,100426.06
2023-02-22T04:18:32.519Z,100431.22
2023-02-22T04:21:02.624Z,100429.50
2023-02-22T04:23:38.113Z,100437.25
2023-02-22T04:26:06.449Z,100435.47
2023-02-22T04:28:34.146Z,100438.97
2023-02-22T04:31:17.491Z,100438.97
2023-02-22T04:33:45.719Z,100449.31
2023-02-22T04:36:17.289Z,100445.88
2023-02-22T04:38:46.274Z,100454.50
2023-02-22T04:41:14.490Z,100449.34
2023-02-22T04:43:42.692Z,100449.31
2023-02-22T04:46:23.247Z,100456.22
2023-02-22T04:48:53.076Z,100455.38
2023-02-22T04:51:24.293Z,100453.66
2023-02-22T04:53:57.687Z,100457.06
2023-02-22T04:56:26.382Z,100453.66
2023-02-22T04:58:54.095Z,100457.94
2023-02-22T05:01:23.557Z,100454.50
2023-02-22T05:03:51.742Z,100457.06
2023-02-22T05:06:19.723Z,100454.50
2023-02-22T05:08:48.069Z,100465.69
2023-02-22T05:11:16.231Z,100462.25
2023-02-22T05:13:44.035Z,100461.34
2023-02-22T05:16:12.277Z,100466.53
2023-02-22T05:18:40.062Z,100468.25
2023-02-22T05:21:08.614Z,100463.94
2023-02-22T05:23:36.361Z,100476.88
2023-02-22T05:26:06.560Z,100476.91
2023-02-22T05:28:34.371Z,100482.06
2023-02-22T05:31:02.410Z,100486.38
2023-02-22T05:33:30.207Z,100494.06
2023-02-22T05:35:58.125Z,100491.53
2023-02-22T05:38:26.065Z,100496.66
2023-02-22T05:40:54.214Z,100499.25
2023-02-22T05:43:21.824Z,100503.56
2023-02-22T05:45:49.785Z,100500.97
2023-02-22T05:48:18.040Z,100508.75
2023-02-22T05:50:46.100Z,100502.72
2023-02-22T05:53:13.947Z,100501.84
2023-02-22T05:55:41.909Z,100506.13
2023-02-22T05:58:09.550Z,100519.03
2023-02-22T06:00:37.509Z,100507.00
2023-02-22T06:03:08.176Z,100512.16
2023-02-22T06:05:37.430Z,100513.03
2023-02-22T06:08:07.109Z,100525.09
2023-02-22T06:10:35.493Z,100526.81
2023-02-22T06:13:05.322Z,100531.16
2023-02-22T06:15:33.664Z,100530.28
2023-02-22T06:18:02.637Z,100535.44
2023-02-22T06:20:31.589Z,100538.91
2023-02-22T06:22:59.513Z,100548.38
2023-02-22T06:25:33.035Z,100545.81
2023-02-22T06:28:01.628Z,100550.97
2023-02-22T06:30:30.840Z,100550.97
2023-02-22T06:32:58.599Z,100554.41
2023-02-22T06:35:26.658Z,100558.72
2023-02-22T06:37:54.464Z,100561.31
2023-02-22T06:40:22.490Z,100571.66
2023-02-22T06:42:50.213Z,100576.84
2023-02-22T06:45:18.786Z,100576.84
2023-02-22T06:47:46.497Z,100578.53
2023-02-22T06:50:29.476Z,100580.28
2023-02-22T06:52:58.385Z,100584.59
2023-02-22T06:55:29.213Z,100595.81
2023-02-22T06:57:56.904Z,100589.75
2023-02-22T07:00:26.515Z,100595.78
2023-02-22T07:02:54.883Z,100591.50
2023-02-22T07:05:24.760Z,100591.50
2023-02-22T07:07:54.400Z,100591.50
2023-02-22T07:10:28.787Z,100604.44
2023-02-22T07:12:56.905Z,100602.69
2023-02-22T07:15:27.981Z,100606.16
2023-02-22T07:17:56.310Z,100605.31
2023-02-22T07:20:26.055Z,100606.13
2023-02-22T07:22:53.998Z,100606.16
2023-02-22T07:25:23.132Z,100607.88
2023-02-22T07:27:52.495Z,100610.47
2023-02-22T07:30:25.364Z,100610.47
2023-02-22T07:32:55.459Z,100611.31
2023-02-22T07:35:44.460Z,100611.31
2023-02-22T07:38:13.013Z,100611.34
2023-02-22T07:40:42.446Z,100604.44
2023-02-22T07:43:37.063Z,100606.16
2023-02-22T07:46:05.422Z,100606.97
2023-02-22T07:48:33.340Z,100609.56
2023-02-22T07:51:01.419Z,100604.38
2023-02-22T07:53:31.751Z,100609.56
2023-02-22T07:56:01.620Z,100613.00
2023-02-22T07:58:30.706Z,100613.88
2023-02-22T08:00:59.926Z,100613.00
2023-02-22T08:03:28.060Z,100610.31
2023-02-22T08:05:57.770Z,100616.31
2023-02-22T08:08:25.579Z,100612.00
2023-02-22T08:10:53.861Z,100605.94
2023-02-22T08:13:22.712Z,100614.59
2023-02-22T08:15:53.653Z,100612.06
2023-02-22T08:18:23.073Z,100609.53
2023-02-22T08:20:52.264Z,100609.47
2023-02-22T08:23:25.281Z,100616.44
2023-02-22T08:25:54.118Z,100619.78
2023-02-22T08:28:24.163Z,100630.13
2023-02-22T08:30:52.607Z,100624.06
2023-02-22T08:33:20.665Z,100628.38
2023-02-22T08:35:50.001Z,100623.94
2023-02-22T08:38:25.157Z,100623.91
2023-02-22T08:40:53.480Z,100622.97
2023-02-22T08:43:21.875Z,100622.78
2023-02-22T08:45:51.959Z,100632.31
2023-02-22T08:48:20.512Z,100633.78
2023-02-22T08:50:48.702Z,100636.34
2023-02-22T08:53:17.040Z,100634.94
2023-02-22T08:55:45.509Z,100640.16
2023-02-22T08:58:13.930Z,100640.16
2023-02-22T09:00:44.741Z,100645.34
2023-02-22T09:03:14.683Z,100651.50
2023-02-22T09:05:44.316Z,100651.44
2023-02-22T09:08:13.100Z,100655.47
2023-02-22T09:10:41.248Z,100648.38
2023-02-22T09:13:08.975Z,100647.38
2023-02-22T09:15:37.783Z,100660.88
2023-02-22T09:18:08.482Z,100654.31
2023-02-22T09:20:36.792Z,100663.06
2023-02-22T09:23:06.459Z,100664.84
2023-02-22T09:25:34.437Z,100663.19
2023-02-22T09:28:02.606Z,100664.28
2023-02-22T09:30:33.778Z,100663.41
2023-02-22T09:33:10.036Z,100665.38
2023-02-22T09:35:43.077Z,100660.19
2023-02-22T09:38:11.947Z,100661.06
2023-02-22T09:41:16.736Z,100665.25
2023-02-22T09:44:20.063Z,100670.38
2023-02-22T09:46:49.600Z,100668.81
2023-02-22T09:49:39.833Z,100668.91
2023-02-22T09:52:24.218Z,100663.78
2023-02-22T09:55:18.636Z,100671.56
2023-02-22T09:57:47.391Z,100675.06
2023-02-22T10:00:22.744Z,100671.56
2023-02-22T10:03:17.374Z,100675.06
2023-02-22T10:05:53.737Z,100675.94
2023-02-22T10:08:31.363Z,100677.66
2023-02-22T10:11:49.816Z,100681.13
2023-02-22T10:14:35.076Z,100682.88
2023-02-22T10:17:22.629Z,100694.97
2023-02-22T10:20:13.479Z,100695.84
2023-02-22T10:22:57.082Z,100700.16
2023-02-22T10:25:28.873Z,100695.84
2023-02-22T10:28:18.593Z,100697.56
2023-02-22T10:30:59.236Z,100701.00
2023-02-22T10:33:48.927Z,100706.13
2023-02-22T10:36:20.414Z,100704.34
2023-02-22T10:38:57.750Z,100704.31
2023-02-22T10:41:35.071Z,100710.38
2023-02-22T10:44:03.623Z,100707.81
2023-02-22T10:46:33.372Z,100715.53
2023-02-22T10:49:09.539Z,100716.31
2023-02-22T10:51:39.356Z,100716.31
2023-02-22T10:54:12.815Z,100718.88
2023-02-22T10:56:48.140Z,100728.28
2023-02-22T10:59:30.752Z,100716.34
2023-02-22T11:01:59.631Z,100716.41
2023-02-22T11:04:28.023Z,100718.97
2023-02-22T11:07:10.531Z,100712.06
2023-02-22T11:09:56.317Z,100709.50
2023-02-22T11:12:32.780Z,100719.75
2023-02-22T11:15:36.076Z,100711.25
2023-02-22T11:18:04.208Z,100711.31
2023-02-22T11:20:39.393Z,100711.34
2023-02-22T11:23:08.359Z,100711.38
2023-02-22T11:25:39.439Z,100718.25
2023-02-22T11:28:15.726Z,100707.94
2023-02-22T11:30:48.765Z,100711.38
2023-02-22T11:33:23.307Z,100714.78
2023-02-22T11:35:59.471Z,100723.44
2023-02-22T11:38:31.468Z,100720.00
2023-02-22T11:41:16.632Z,100725.16
2023-02-22T11:43:48.004Z,100721.72
2023-02-22T11:46:22.602Z,100725.97
2023-02-22T11:49:04.676Z,100720.00
2023-02-22T11:51:56.272Z,100725.13
2023-02-22T11:54:33.465Z,100725.13
2023-02-22T11:57:30.218Z,100725.94
2023-02-22T12:00:26.263Z,100729.41
2023-02-22T12:03:05.881Z,100731.09
2023-02-22T12:05:45.856Z,100728.53
2023-02-22T12:08:51.597Z,100738.91
2023-02-22T12:11:23.925Z,100740.63
2023-02-22T12:14:16.192Z,100740.63
2023-02-22T12:16:59.602Z,100733.78
2023-02-22T12:20:00.974Z,100733.81
2023-02-22T12:22:39.837Z,100725.19
2023-02-22T12:25:29.520Z,100731.19
2023-02-22T12:28:15.679Z,100724.28
2023-02-22T12:31:05.368Z,100725.97
2023-02-22T12:34:04.374Z,100731.97
2023-02-22T12:36:41.178Z,100732.03
2023-02-22T12:39:52.617Z,100734.59
2023-02-22T12:42:36.239Z,100728.59
2023-02-22T12:45:24.609Z,100732.88
2023-02-22T12:48:09.018Z,100738.13
2023-02-22T12:50:37.831Z,100744.13
2023-02-22T12:53:29.491Z,100742.44
2023-02-22T12:56:24.377Z,100756.22
2023-02-22T12:59:03.171Z,100743.28
2023-02-22T13:01:40.462Z,100752.75
2023-02-22T13:04:20.200Z,100752.78
2023-02-22T13:07:08.304Z,100757.09
2023-02-22T13:09:41.972Z,100743.31
2023-02-22T13:12:24.782Z,100748.47
2023-02-22T13:15:02.135Z,100752.78
2023-02-22T13:17:50.931Z,100760.53
2023-02-22T13:20:30.754Z,100771.75
2023-02-22T13:23:06.787Z,100771.69
2023-02-22T13:25:51.277Z,100779.47
2023-02-22T13:28:43.463Z,100781.19
2023-02-22T13:31:45.975Z,100778.59
2023-02-22T13:34:40.301Z,100778.53
2023-02-22T13:37:31.051Z,100788.94
2023-02-22T13:40:17.167Z,100778.53
2023-02-22T13:43:17.003Z,100779.38
2023-02-22T13:45:55.436Z,100783.69
2023-02-22T13:48:53.495Z,100782.84
2023-02-22T13:51:30.436Z,100778.59
2023-02-22T13:54:06.102Z,100787.16
2023-02-22T13:56:34.306Z,100786.28
2023-02-22T13:59:04.191Z,100783.66
2023-02-22T14:01:47.095Z,100793.03
2023-02-22T14:04:20.812Z,100786.25
2023-02-22T14:06:48.995Z,100788.00
2023-02-22T14:09:37.896Z,100786.19
2023-02-22T14:12:06.124Z,100792.16
2023-02-22T14:14:33.886Z,100796.44
2023-02-22T14:17:25.751Z,100799.03
2023-02-22T14:20:16.652Z,100791.25
2023-02-22T14:22:47.995Z,100794.63
2023-02-22T14:25:39.464Z,100806.81
2023-02-22T14:28:28.530Z,100804.25
2023-02-22T14:31:33.369Z,100805.91
2023-02-22T14:34:15.459Z,100804.97
2023-02-22T14:36:54.610Z,100806.69
2023-02-22T14:39:25.596Z,100812.50
2023-02-22T14:42:05.856Z,100809.09
2023-02-22T14:44:55.457Z,100803.00
2023-02-22T14:48:01.051Z,100811.66
2023-02-22T14:50:45.215Z,100792.50
2023-02-22T14:53:22.651Z,100812.50
2023-02-22T14:56:17.745Z,100812.59
2023-02-22T14:59:08.011Z,100808.28
2023-02-22T15:01:53.146Z,100809.06
2023-02-22T15:04:28.941Z,100814.91
2023-02-22T15:07:00.428Z,100809.75
2023-02-22T15:09:37.484Z,100822.69
2023-02-22T15:12:05.876Z,100828.53
2023-02-22T15:14:38.010Z,100819.03
2023-02-22T15:17:21.393Z,100813.22
2023-02-22T15:19:50.115Z,100813.88
2023-02-22T15:22:35.412Z,100823.34
2023-02-22T15:25:06.380Z,100814.63
2023-02-22T15:27:39.342Z,100831.75
2023-02-22T15:30:20.303Z,100826.56
2023-02-22T15:33:03.251Z,100832.41
2023-02-22T15:35:33.634Z,100824.75
2023-02-22T15:38:26.758Z,100828.16
2023-02-22T15:41:08.418Z,100835.09
2023-02-22T15:43:36.370Z,100830.91
2023-02-22T15:46:06.816Z,100830.84
2023-02-22T15:48:37.303Z,100842.91
2023-02-22T15:51:06.627Z,100835.25
2023-02-22T15:53:44.916Z,100841.91
2023-02-22T15:56:26.900Z,100843.78
2023-02-22T15:59:03.820Z,100849.81
2023-02-22T16:01:42.960Z,100856.50
2023-02-22T16:04:26.654Z,100854.03
2023-02-22T16:07:07.202Z,100859.31
2023-02-22T16:09:35.770Z,100852.53
2023-02-22T16:12:23.770Z,100852.31
2023-02-22T16:14:52.544Z,100855.72
2023-02-22T16:17:37.236Z,100861.72
2023-02-22T16:20:14.558Z,100855.94
2023-02-22T16:22:49.232Z,100855.91
2023-02-22T16:25:22.465Z,100858.44
2023-02-22T16:27:53.192Z,100855.13
2023-02-22T16:30:32.533Z,100861.16
2023-02-22T16:33:05.526Z,100870.63
2023-02-22T16:35:35.652Z,100872.38
2023-02-22T16:38:16.450Z,100877.41
2023-02-22T16:40:55.548Z,100874.00
2023-02-22T16:43:29.589Z,100881.91
2023-02-22T16:45:57.823Z,100877.41
2023-02-22T16:48:27.279Z,100890.28
2023-02-22T16:51:01.161Z,100887.84
2023-02-22T16:53:32.125Z,100882.19
2023-02-22T16:56:05.766Z,100892.44
2023-02-22T16:58:36.724Z,100885.56
2023-02-22T17:01:04.999Z,100884.53
2023-02-22T17:03:32.780Z,100894.06
2023-02-22T17:06:00.684Z,100891.63
2023-02-22T17:08:28.343Z,100894.25
2023-02-22T17:10:57.843Z,100888.41
2023-02-22T17:13:27.672Z,100894.25
2023-02-22T17:15:57.135Z,100894.25
2023-02-22T17:18:28.920Z,100897.09
2023-02-22T17:20:57.346Z,100892.69
2023-02-22T17:23:27.600Z,100892.53
2023-02-22T17:25:59.286Z,100896.19
2023-02-22T17:28:28.179Z,100888.22
2023-02-22T17:31:02.062Z,100887.59
2023-02-22T17:33:31.219Z,100895.91
2023-02-22T17:36:02.046Z,100883.94
2023-02-22T17:38:30.756Z,100889.06
2023-02-22T17:41:00.553Z,100895.94
2023-02-22T17:43:29.015Z,100890.06
2023-02-22T17:45:57.424Z,100902.97
2023-02-22T17:48:26.018Z,100896.19
2023-02-22T17:50:54.073Z,100891.19
2023-02-22T17:53:24.897Z,100886.91
2023-02-22T17:55:53.487Z,100886.22
2023-02-22T17:58:22.350Z,100896.16
2023-02-22T18:00:50.878Z,100891.16
2023-02-22T18:03:21.926Z,100900.44
2023-02-22T18:05:54.938Z,100899.59
2023-02-22T18:08:24.509Z,100897.75
2023-02-22T18:10:56.390Z,100901.31
2023-02-22T18:13:26.598Z,100901.31
2023-02-22T18:16:00.252Z,100898.53
2023-02-22T18:18:28.784Z,100902.72
2023-02-22T18:20:59.914Z,100908.16
2023-02-22T18:23:30.594Z,100914.31
2023-02-22T18:26:10.766Z,100915.78
2023-02-22T18:28:39.807Z,100918.34
2023-02-22T18:31:14.832Z,100915.94
2023-02-22T18:33:44.220Z,100909.88
2023-02-22T18:36:13.626Z,100916.69
2023-02-22T18:38:43.222Z,100923.47
2023-02-22T18:41:14.415Z,100915.72
2023-02-22T18:43:43.075Z,100916.44
2023-02-22T18:46:14.411Z,100920.69
2023-02-22T18:48:42.381Z,100917.97
2023-02-22T18:51:12.730Z,100917.31
2023-02-22T18:53:46.914Z,100920.03
2023-02-22T18:56:21.870Z,100928.38
2023-02-22T18:58:54.147Z,100925.63
2023-02-22T19:01:22.621Z,100909.13
2023-02-22T19:03:51.779Z,100912.91
2023-02-22T19:06:22.622Z,100910.47
2023-02-22T19:08:51.055Z,100918.31
2023-02-22T19:11:24.478Z,100912.44
2023-02-22T19:13:54.258Z,100920.03
2023-02-22T19:16:24.499Z,100918.25
2023-02-22T19:18:57.236Z,100918.06
2023-02-22T19:21:27.953Z,100919.13
2023-02-22T19:24:01.502Z,100914.69
2023-02-22T19:26:30.276Z,100916.63
2023-02-22T19:28:59.640Z,100913.09
2023-02-22T19:31:31.983Z,100912.09
2023-02-22T19:34:11.164Z,100916.66
2023-02-22T19:36:47.648Z,100905.59
2023-02-22T19:39:17.216Z,100899.34
2023-02-22T19:41:45.907Z,100906.81
2023-02-22T19:44:13.876Z,100906.66
2023-02-22T19:46:41.787Z,100919.66
2023-02-22T19:49:09.530Z,100919.84
2023-02-22T19:51:43.384Z,100925.94
2023-02-22T19:54:17.471Z,100920.03
2023-02-22T19:56:50.766Z,100915.47
2023-02-22T19:59:21.537Z,100931.03
2023-02-22T20:01:54.002Z,100933.38
2023-02-22T20:04:22.962Z,100935.13
2023-02-22T20:06:57.557Z,100942.16
2023-02-22T20:09:39.626Z,100928.56
2023-02-22T20:12:08.146Z,100934.44
2023-02-22T20:14:36.272Z,100941.16
2023-02-22T20:17:05.084Z,100930.09
2023-02-22T20:19:32.767Z,100933.53
2023-02-22T20:22:00.729Z,100933.56
2023-02-22T20:24:28.405Z,100936.91
2023-02-22T20:26:58.237Z,100929.22
2023-02-22T20:29:30.038Z,100935.13
2023-02-22T20:32:00.572Z,100937.47
2023-02-22T20:34:32.523Z,100933.16
2023-02-22T20:37:01.836Z,100933.22
2023-02-22T20:39:29.771Z,100933.91
2023-02-22T20:42:00.615Z,100940.00
2023-02-22T20:44:28.458Z,100933.47
2023-02-22T20:46:56.553Z,100936.00
2023-02-22T20:49:25.840Z,100937.59
2023-02-22T20:51:53.776Z,100945.88
2023-02-22T20:54:21.448Z,100933.97
2023-02-22T20:56:50.713Z,100944.19
2023-02-22T20:59:21.508Z,100943.34
2023-02-22T21:01:50.235Z,100943.50
2023-02-22T21:04:18.687Z,100942.59
2023-02-22T21:06:46.808Z,100941.53
2023-02-22T21:09:19.883Z,100944.31
2023-02-22T21:11:49.118Z,100942.53
2023-02-22T21:14:20.724Z,100938.25
2023-02-22T21:16:50.704Z,100934.00
2023-02-22T21:19:25.539Z,100935.53
2023-02-22T21:21:55.712Z,100936.56
2023-02-22T21:24:25.181Z,100938.19
2023-02-22T21:26:53.332Z,100947.75
2023-02-22T21:29:21.403Z,100941.66
2023-02-22T21:31:49.487Z,100946.69
2023-02-22T21:34:17.621Z,100944.16
2023-02-22T21:36:46.558Z,100933.19
2023-02-22T21:39:19.128Z,100933.09
2023-02-22T21:41:52.013Z,100943.97
2023-02-22T21:44:20.145Z,100944.22
2023-02-22T21:46:49.872Z,100945.81
2023-02-22T21:49:18.326Z,100948.25
2023-02-22T21:51:46.336Z,100950.03
2023-02-22T21:54:14.059Z,100949.09
2023-02-22T21:56:43.638Z,100949.00
2023-02-22T21:59:19.047Z,100944.75
2023-02-22T22:02:06.149Z,100947.41
2023-02-22T22:04:35.024Z,100936.88
2023-02-22T22:07:04.492Z,100951.81
2023-02-22T22:09:33.413Z,100947.44
2023-02-22T22:12:05.358Z,100945.56
2023-02-22T22:14:34.454Z,100952.41
2023-02-22T22:17:05.685Z,100946.69
2023-02-22T22:19:39.174Z,100943.16
2023-02-22T22:22:07.952Z,100944.53
2023-02-22T22:24:36.350Z,100942.91
2023-02-22T22:27:06.517Z,100949.56
2023-02-22T22:29:34.677Z,100951.53
2023-02-22T22:32:03.728Z,100941.13
2023-02-22T22:34:34.370Z,100953.00
2023-02-22T22:37:03.055Z,100959.81
2023-02-22T22:39:30.895Z,100952.06
2023-02-22T22:41:58.861Z,100954.31
2023-02-22T22:44:32.684Z,100959.00
2023-02-22T22:47:01.286Z,100953.91
2023-02-22T22:49:31.373Z,100957.84
2023-02-22T22:51:59.588Z,100956.44
2023-02-22T22:54:27.403Z,100957.28
2023-02-22T22:56:55.330Z,100960.47
2023-02-22T22:59:23.092Z,100955.50
2023-02-22T23:01:52.304Z,100963.22
2023-02-22T23:04:21.505Z,100959.59
2023-02-22T23:06:51.389Z,100959.63
2023-02-22T23:09:22.759Z,100958.81
2023-02-22T23:12:08.725Z,100955.22
2023-02-22T23:14:44.188Z,100953.66
2023-02-22T23:17:16.275Z,100963.22
2023-02-22T23:19:45.137Z,100956.16
2023-02-22T23:22:14.408Z,100956.16
2023-02-22T23:24:44.468Z,100957.38
2023-02-22T23:27:13.000Z,100961.72
2023-02-22T23:29:42.445Z,100960.00
2023-02-22T23:32:10.506Z,100959.09
2023-02-22T23:34:41.724Z,100959.25
2023-02-22T23:37:10.835Z,100950.78
2023-02-22T23:39:38.870Z,100947.22
2023-02-22T23:42:10.031Z,100957.41
2023-02-22T23:44:39.806Z,100953.59
2023-02-22T23:47:09.643Z,100939.22
2023-02-22T23:49:38.465Z,100947.06
2023-02-22T23:52:08.416Z,100936.66
2023-02-22T23:54:40.412Z,100933.31
2023-02-22T23:57:09.103Z,100938.34
2023-02-22T23:59:40.415Z,100926.16
